Track Чижикова Наталия

Time Latitude Longitude Accuracy (66% radius in meters) Altitude (meters) Speed (km/hour) Bearing (degrees) Battery (%) GPS flag
07:02:22 57.204108 60.118340 8.6263275146484 277.64969301037 0.14858031272888 55.978107452393 85 1 delete
07:02:09 57.204183 60.118232 5.5813102722168 274.59025121387 0.57903790473938 75.174179077148 85 1 delete
07:00:09 57.204264 60.118153 10.304835319519 271.51564661693 0.40433192253113 75.174179077148 85 1 delete
07:00:05 57.204341 60.118058 10.258845329285 270.73598802648 0.85961580276489 87.788513183594 85 1 delete
07:00:00 57.204407 60.117931 9.6092939376831 271.24982087407 1.3922008275986 111.56304931641 85 1 delete
06:59:55 57.204481 60.117800 10.105959892273 271.25699592941 1.557797908783 115.64856719971 85 1 delete
06:59:50 57.204560 60.117660 10.631302833557 270.71563885827 1.5033264160156 128.51286315918 85 1 delete
06:59:45 57.204650 60.117582 10.222176551819 269.67971543502 2.3867766857147 152.0340423584 85 1 delete
06:59:42 57.204748 60.117526 10.576741218567 270.70947162341 3.240067243576 166.64613342285 85 1 delete
06:59:39 57.204843 60.117485 9.3336009979248 274.04187505227 2.7404668331146 185.48532104492 85 1 delete
06:59:36 57.204947 60.117497 8.3403081893921 273.68286424689 3.5519812107086 190.8758392334 85 1 delete
06:59:33 57.205047 60.117518 7.4914774894714 273.42181520723 3.4265530109406 198.41949462891 85 1 delete
06:59:30 57.205155 60.117553 6.9976348876953 273.26282447111 3.536251783371 191.68501281738 85 1 delete
06:59:26 57.205254 60.117555 6.3863234519958 274.51073937863 2.0745894908905 140.89639282227 85 1 delete
06:59:17 57.205346 60.117570 6.8127527236938 270.2038791487 0.22379918396473 140.89639282227 85 1 delete
06:59:05 57.205420 60.117475 11.668001174927 269.13487172034 2.2100102901459 149.20329284668 85 1 delete
06:59:03 57.205618 60.117390 13.125310897827 250.24519303255 1.370924115181 142.75523376465 85 1 delete
06:59:01 57.205726 60.117357 13.54208278656 239.83953025565 1.3245860338211 133.09896850586 85 1 delete
06:58:56 57.205797 60.117248 14.163743019104 241.7003390165 1.8830370903015 126.61779022217 85 1 delete
06:58:50 57.205938 60.117108 13.309039115906 238.54536490142 1.8843228816986 150.29002380371 85 1 delete
06:58:49 57.206043 60.117022 12.59125995636 230.19570011646 2.3337199687958 139.23294067383 85 1 delete
06:58:46 57.206149 60.116895 11.819528579712 232.8773113247 4.1346049308777 171.69909667969 85 1 delete
06:58:43 57.206258 60.116896 11.789442062378 235.85073651653 3.475072145462 189.81188964844 85 1 delete
06:58:40 57.206355 60.116896 9.9755630493164 238.39576917514 3.3160433769226 194.87184143066 85 1 delete
06:58:37 57.206458 60.116901 9.3923196792603 239.8456688216 4.2114396095276 190.02188110352 85 1 delete
06:58:34 57.206590 60.116893 9.3331623077393 240.39908303414 4.1416397094727 197.11137390137 85 1 delete
06:58:31 57.206701 60.116871 9.7377758026123 241.15697320085 1.9449777603149 184.93635559082 85 1 delete
06:58:25 57.206806 60.116790 9.4827098846436 242.27680234704 1.0769907236099 169.17179870605 85 1 delete
06:56:57 57.206906 60.116716 11.542387962341 241.48314841371 1.5657923221588 181.16876220703 85 1 delete
06:56:54 57.207016 60.116758 11.171253204346 238.26033143979 1.1572670936584 150.05673217773 85 1 delete
06:56:43 57.207112 60.116748 11.79020690918 242.950835458 1.6915057897568 196.03646850586 85 1 delete
06:56:37 57.207233 60.116854 11.878168106079 246.77793695219 1.5731534957886 203.59736633301 85 1 delete
06:56:32 57.207332 60.116913 11.699242591858 254.7858931059 1.8666619062424 209.46229553223 85 1 delete
06:56:31 57.207423 60.117107 11.489327430725 248.59583090246 1.7809057235718 207.9066619873 85 1 delete
06:56:27 57.207507 60.117185 10.427380561829 258.22131738905 1.2725974321365 196.80363464355 85 1 delete
06:56:23 57.207599 60.117168 9.9521045684814 265.76482531335 1.4457787275314 177.78295898438 85 1 delete
06:56:19 57.207692 60.117223 10.704840660095 264.04342095088 0 132.91445922852 85 1 delete
06:56:12 57.207788 60.117289 11.314364433289 263.076706063 1.303545832634 178.36480712891 85 1 delete
06:56:05 57.207873 60.117366 9.1286535263062 267.65921473596 1.2458611726761 263.79974365234 85 1 delete
06:55:58 57.207923 60.117511 10.571193695068 270.6332500698 1.7397165298462 257.52667236328 85 1 delete
06:55:53 57.208011 60.117583 9.6669483184814 272.23882667907 1.322966337204 222.47372436523 85 1 delete
06:55:49 57.208107 60.117598 10.196313858032 271.45973608177 1.3587626218796 197.91526794434 85 1 delete
06:55:45 57.208296 60.117499 11.638240814209 273.01963387709 1.354970574379 190.64828491211 85 1 delete
06:54:58 57.208392 60.117467 7.8913435935974 275.04700417444 0 147.96890258789 85 1 delete
06:54:56 57.208486 60.117410 9.4930171966553 271.56567419134 1.2569189071655 147.96890258789 85 1 delete
06:54:24 57.208600 60.117367 9.1770782470703 266.84607490618 0.25547310709953 127.43511199951 85 1 delete
06:54:01 57.208704 60.117381 8.8928575515747 268.86720723659 0.72602826356888 137.46182250977 85 1 delete
06:53:45 57.208856 60.117374 8.2281255722046 264.94202873018 0.55413496494293 137.46182250977 85 1 delete
06:53:39 57.208955 60.117398 7.8603715896606 268.86625505053 1.0934016704559 257.36596679688 85 1 delete
06:53:30 57.209060 60.117392 8.0112323760986 271.38017686643 0.57249397039413 111.93738555908 85 1 delete